LESO/EAS METAR and TAF weather

Enter ICAO airport designator
Station Type Date Time Source
LESO METAR 2019/08/25 20:30 UTC NOAA

LESO 252030Z AUTO 00000KT 9999 SCT014 OVC024 23/20 Q1018


Station Type Date Time Source
LESO Decoded METAR 2019/08/25 20:30 UTC NOAA

Station name not available
Aug 25, 2019 - 04:30 PM EDT / 2019.08.25 2030 UTC
Wind: Calm:0
Visibility: greater than 7 mile(s):0
Sky conditions: overcast
Temperature: 73 F (23 C)
Dew Point: 68 F (20 C)
Relative Humidity: 83%
Pressure (altimeter): 30.06 in. Hg (1018 hPa)
ob: LESO 252030Z AUTO 00000KT 9999 SCT014 OVC024 23/20 Q1018
cycle: 20

Station Type Date Time Source
LESO TAF 2019/08/25 18:27 UTC NOAA

TAF LESO 251700Z 2518/2618 VRB03KT 9999 BKN018 TX26/2614Z TN19/2606Z PROB40
TEMPO 2518/2609 BKN010 BKN014

Example: see airport list